Time;durP1;ratioP1;P1;durP2;ratioP2;P2;SDS_P1;SDS_P2;PMS_P1;PMS_P2;Temp;Humidity;BMP_temperature;BMP_pressure;BME280_temperature;BME280_humidity;BME280_pressure;Samples;Min_cycle;Max_cycle;Signal;HPM_P1;HPM_P2
2023/03/29 00:02:12;;;;;;;4.97;3.55;;;;;;;;;;5012235;28;20049;-73
2023/03/29 00:04:38;;;;;;;6.50;4.10;;;;;;;;;;5011621;28;20069;-73
2023/03/29 00:07:04;;;;;;;10.00;4.20;;;;;;;;;;5011099;28;20052;-73
2023/03/29 00:09:31;;;;;;;5.80;3.88;;;;;;;;;;5012206;28;20045;-73
2023/03/29 00:11:58;;;;;;;6.22;3.83;;;;;;;;;;5008116;28;20106;-73
2023/03/29 00:14:25;;;;;;;5.68;3.97;;;;;;;;;;5009064;28;20057;-73
2023/03/29 00:16:51;;;;;;;5.20;3.65;;;;;;;;;;5007651;28;20037;-73
2023/03/29 00:19:17;;;;;;;7.40;4.03;;;;;;;;;;5013011;28;20397;-73
2023/03/29 00:21:44;;;;;;;8.55;4.20;;;;;;;;;;5012811;28;22257;-73
2023/03/29 00:24:10;;;;;;;8.15;3.63;;;;;;;;;;5013257;28;20049;-73
2023/03/29 00:26:36;;;;;;;6.30;3.63;;;;;;;;;;5010327;28;20367;-73
2023/03/29 00:29:02;;;;;;;9.02;4.32;;;;;;;;;;5017156;28;20129;-73
2023/03/29 00:31:28;;;;;;;5.85;3.70;;;;;;;;;;5008255;28;20057;-73
2023/03/29 00:33:55;;;;;;;5.38;3.88;;;;;;;;;;5010989;28;20064;-73
2023/03/29 00:36:22;;;;;;;11.55;3.97;;;;;;;;;;5012907;28;20617;-72
2023/03/29 00:38:48;;;;;;;9.57;3.88;;;;;;;;;;5008696;28;20053;-72
2023/03/29 00:41:14;;;;;;;5.28;3.08;;;;;;;;;;5010053;28;20041;-73
2023/03/29 00:43:57;;;;;;;6.18;3.75;;;;;;;;;;5011798;28;20041;-73
2023/03/29 00:46:24;;;;;;;6.18;3.70;;;;;;;;;;4995186;28;20076;-73
2023/03/29 00:48:52;;;;;;;7.45;3.47;;;;;;;;;;5009397;28;20106;-72
2023/03/29 00:51:19;;;;;;;5.78;3.55;;;;;;;;;;5011978;28;20056;-72
2023/03/29 00:53:48;;;;;;;7.97;3.47;;;;;;;;;;5011919;28;20045;-73
2023/03/29 00:56:23;;;;;;;7.05;3.83;;;;;;;;;;5010989;28;20071;-73
2023/03/29 00:58:51;;;;;;;8.27;3.30;;;;;;;;;;5009369;28;20322;-73
2023/03/29 01:01:20;;;;;;;4.18;3.03;;;;;;;;;;5009340;28;20977;-72
2023/03/29 01:03:52;;;;;;;7.20;3.35;;;;;;;;;;5010054;28;20123;-72
2023/03/29 01:06:21;;;;;;;6.40;3.08;;;;;;;;;;5009194;28;21392;-73
2023/03/29 01:08:51;;;;;;;6.90;3.47;;;;;;;;;;5010834;28;20629;-73
2023/03/29 01:11:19;;;;;;;5.53;3.50;;;;;;;;;;5002495;28;20069;-73
2023/03/29 01:13:57;;;;;;;2.70;2.40;;;;;;;;;;5002167;28;22032;-72
2023/03/29 01:16:24;;;;;;;5.03;3.42;;;;;;;;;;5002939;28;20040;-72
2023/03/29 01:18:51;;;;;;;5.30;3.42;;;;;;;;;;5000374;28;20042;-72
2023/03/29 01:21:22;;;;;;;7.32;3.75;;;;;;;;;;4996161;28;20441;-72
2023/03/29 01:24:05;;;;;;;9.20;3.65;;;;;;;;;;5001904;28;20063;-72
2023/03/29 01:27:07;;;;;;;7.47;4.13;;;;;;;;;;4996297;28;20536;-73
2023/03/29 01:29:33;;;;;;;5.93;3.95;;;;;;;;;;4971615;28;20045;-72
2023/03/29 01:32:17;;;;;;;5.10;3.45;;;;;;;;;;4996812;28;20049;-72
2023/03/29 01:34:50;;;;;;;8.13;4.25;;;;;;;;;;5001532;28;20041;-72
2023/03/29 01:37:35;;;;;;;6.28;3.60;;;;;;;;;;5003180;28;20069;-72
2023/03/29 01:40:03;;;;;;;4.93;3.33;;;;;;;;;;5003380;28;20057;-73
2023/03/29 01:42:51;;;;;;;6.60;3.40;;;;;;;;;;4999837;28;20041;-72
2023/03/29 01:45:26;;;;;;;5.35;3.30;;;;;;;;;;5009281;28;20041;-72
2023/03/29 01:48:06;;;;;;;6.70;4.00;;;;;;;;;;5010125;28;20441;-72
2023/03/29 01:50:32;;;;;;;4.35;3.47;;;;;;;;;;5000403;28;20764;-72
2023/03/29 01:53:05;;;;;;;8.65;3.85;;;;;;;;;;5002498;28;20051;-72
2023/03/29 01:55:33;;;;;;;6.50;3.85;;;;;;;;;;5000303;28;20057;-72
2023/03/29 01:58:00;;;;;;;5.20;3.65;;;;;;;;;;5002055;28;20081;-72
2023/03/29 02:00:28;;;;;;;8.63;3.97;;;;;;;;;;4999413;28;21928;-72
2023/03/29 02:02:58;;;;;;;7.45;3.90;;;;;;;;;;5003505;28;20037;-71
2023/03/29 02:05:25;;;;;;;7.35;4.05;;;;;;;;;;5008695;28;20056;-72
2023/03/29 02:07:52;;;;;;;7.07;4.03;;;;;;;;;;5010271;28;20490;-73
2023/03/29 02:10:18;;;;;;;4.88;3.92;;;;;;;;;;5002214;28;20049;-72
2023/03/29 02:12:44;;;;;;;4.72;3.70;;;;;;;;;;5016711;28;20611;-72
2023/03/29 02:15:12;;;;;;;9.02;4.30;;;;;;;;;;5019096;28;20049;-72
2023/03/29 02:17:38;;;;;;;8.02;4.82;;;;;;;;;;5019354;28;20135;-72
2023/03/29 02:20:21;;;;;;;5.60;4.00;;;;;;;;;;5014645;28;20040;-73
2023/03/29 02:22:51;;;;;;;10.70;5.28;;;;;;;;;;5014135;28;20052;-72
2023/03/29 02:25:18;;;;;;;7.55;5.30;;;;;;;;;;5013363;28;20048;-73
2023/03/29 02:27:45;;;;;;;7.38;4.60;;;;;;;;;;4995087;28;20758;-72
2023/03/29 02:30:12;;;;;;;6.53;5.10;;;;;;;;;;5015062;28;20044;-72
2023/03/29 02:32:47;;;;;;;9.98;4.45;;;;;;;;;;5015988;28;20084;-72
2023/03/29 02:35:15;;;;;;;10.45;5.85;;;;;;;;;;4995382;28;20041;-72
2023/03/29 02:37:43;;;;;;;7.10;4.63;;;;;;;;;;5011624;28;20057;-72
2023/03/29 02:40:11;;;;;;;8.02;5.10;;;;;;;;;;5013098;28;20043;-72
2023/03/29 02:42:39;;;;;;;8.27;5.10;;;;;;;;;;5008038;28;20915;-72
2023/03/29 02:45:06;;;;;;;10.38;5.93;;;;;;;;;;5008536;28;20037;-72
2023/03/29 02:47:35;;;;;;;6.75;4.20;;;;;;;;;;5027646;28;20111;-72
2023/03/29 02:50:01;;;;;;;8.90;4.78;;;;;;;;;;5011673;28;20061;-73
2023/03/29 02:52:33;;;;;;;9.77;5.20;;;;;;;;;;5012326;28;20596;-72
2023/03/29 02:55:02;;;;;;;7.40;4.70;;;;;;;;;;5007757;28;20997;-72
2023/03/29 02:57:28;;;;;;;8.50;5.30;;;;;;;;;;5010236;28;20485;-72
2023/03/29 02:59:58;;;;;;;12.25;4.97;;;;;;;;;;5011031;28;20158;-72
2023/03/29 03:02:24;;;;;;;7.32;5.00;;;;;;;;;;5012077;28;20037;-72
2023/03/29 03:04:51;;;;;;;9.13;5.05;;;;;;;;;;4991167;28;20111;-72
2023/03/29 03:07:18;;;;;;;8.27;3.83;;;;;;;;;;5012911;28;20045;-72
2023/03/29 03:09:46;;;;;;;7.93;4.82;;;;;;;;;;4994634;28;20045;-72
2023/03/29 03:12:12;;;;;;;7.38;4.72;;;;;;;;;;5010771;28;20068;-72
2023/03/29 03:14:39;;;;;;;9.73;4.93;;;;;;;;;;5012437;28;20107;-72
2023/03/29 03:17:05;;;;;;;10.02;5.45;;;;;;;;;;5008351;28;20037;-73
2023/03/29 03:19:31;;;;;;;11.00;5.63;;;;;;;;;;5007050;28;20041;-73
2023/03/29 03:21:58;;;;;;;7.80;5.28;;;;;;;;;;5010684;28;20163;-72
2023/03/29 03:24:24;;;;;;;9.05;5.40;;;;;;;;;;5006427;28;20049;-72
2023/03/29 03:26:50;;;;;;;9.88;5.50;;;;;;;;;;5003084;28;20052;-72
2023/03/29 03:29:16;;;;;;;10.82;5.47;;;;;;;;;;4987442;28;20087;-72
2023/03/29 03:31:43;;;;;;;9.90;6.82;;;;;;;;;;5001699;28;20076;-72
2023/03/29 03:34:10;;;;;;;10.57;6.20;;;;;;;;;;5000553;28;20052;-72
2023/03/29 03:36:36;;;;;;;8.82;5.65;;;;;;;;;;5000936;28;20041;-72
2023/03/29 03:39:05;;;;;;;7.78;5.63;;;;;;;;;;5007129;28;20095;-72
2023/03/29 03:41:32;;;;;;;7.13;5.72;;;;;;;;;;5009281;28;20057;-72
2023/03/29 03:43:58;;;;;;;11.32;5.90;;;;;;;;;;5009655;28;20040;-72
2023/03/29 03:46:24;;;;;;;7.35;4.88;;;;;;;;;;4994840;28;20044;-72
2023/03/29 03:48:51;;;;;;;10.80;6.55;;;;;;;;;;5008943;28;20127;-72
2023/03/29 03:51:17;;;;;;;8.23;6.22;;;;;;;;;;5009133;28;20106;-72
2023/03/29 03:53:43;;;;;;;11.63;6.50;;;;;;;;;;5015087;28;20044;-73
2023/03/29 03:56:09;;;;;;;14.57;6.90;;;;;;;;;;5012747;28;21553;-72
2023/03/29 03:58:36;;;;;;;9.70;6.88;;;;;;;;;;5000440;28;20041;-73
2023/03/29 04:01:02;;;;;;;13.25;7.53;;;;;;;;;;5007246;28;20701;-73
2023/03/29 04:03:28;;;;;;;11.35;7.65;;;;;;;;;;5009760;28;20033;-73
2023/03/29 04:05:55;;;;;;;11.77;7.50;;;;;;;;;;5011223;28;20051;-73
2023/03/29 04:08:21;;;;;;;8.55;7.07;;;;;;;;;;5008610;28;20037;-72
2023/03/29 04:10:54;;;;;;;12.63;7.85;;;;;;;;;;5015112;28;20400;-73
2023/03/29 04:13:21;;;;;;;15.48;8.05;;;;;;;;;;5010961;28;20057;-73
2023/03/29 04:15:55;;;;;;;12.23;7.88;;;;;;;;;;5017274;28;20056;-72
2023/03/29 04:18:21;;;;;;;13.77;8.05;;;;;;;;;;5014843;28;20151;-72
2023/03/29 04:20:47;;;;;;;10.68;8.30;;;;;;;;;;5014605;28;20046;-73
2023/03/29 04:23:14;;;;;;;14.52;9.30;;;;;;;;;;5015930;28;20412;-73
2023/03/29 04:25:40;;;;;;;13.20;8.45;;;;;;;;;;5018799;28;20776;-73
2023/03/29 04:28:06;;;;;;;14.50;9.00;;;;;;;;;;4998370;28;20692;-73
2023/03/29 04:30:32;;;;;;;16.48;9.32;;;;;;;;;;5017790;28;20041;-73
2023/03/29 04:32:58;;;;;;;16.42;9.30;;;;;;;;;;5015809;28;20077;-72
2023/03/29 04:35:24;;;;;;;14.45;9.98;;;;;;;;;;5014024;28;20042;-73
2023/03/29 04:37:53;;;;;;;13.80;8.60;;;;;;;;;;5009978;28;20055;-72
2023/03/29 04:40:19;;;;;;;12.82;9.30;;;;;;;;;;5008406;28;20060;-73
2023/03/29 04:42:46;;;;;;;14.07;10.15;;;;;;;;;;5012893;28;20056;-72
2023/03/29 04:45:18;;;;;;;14.65;10.63;;;;;;;;;;5015250;28;20045;-72
2023/03/29 04:47:45;;;;;;;14.30;10.25;;;;;;;;;;5005958;28;20037;-72
2023/03/29 04:50:12;;;;;;;13.82;10.68;;;;;;;;;;4997056;28;21845;-72
2023/03/29 04:52:38;;;;;;;13.38;10.00;;;;;;;;;;5012889;28;20049;-73
2023/03/29 04:55:06;;;;;;;15.95;8.63;;;;;;;;;;4995632;28;20048;-72
2023/03/29 04:57:43;;;;;;;13.88;11.60;;;;;;;;;;5008698;28;20056;-74
2023/03/29 05:00:14;;;;;;;16.17;11.85;;;;;;;;;;5016184;28;20579;-73
2023/03/29 05:02:44;;;;;;;15.30;10.95;;;;;;;;;;5016835;28;20520;-72
2023/03/29 05:05:10;;;;;;;16.52;11.15;;;;;;;;;;5014797;28;20050;-72
2023/03/29 05:07:36;;;;;;;15.68;11.27;;;;;;;;;;5015287;28;20041;-72
2023/03/29 05:10:03;;;;;;;16.00;11.15;;;;;;;;;;5014362;28;20124;-72
2023/03/29 05:12:29;;;;;;;16.75;10.68;;;;;;;;;;5018022;28;20053;-72
2023/03/29 05:14:56;;;;;;;18.35;13.02;;;;;;;;;;5013642;28;20440;-72
2023/03/29 05:17:22;;;;;;;14.40;11.10;;;;;;;;;;5015525;28;20041;-74
2023/03/29 05:19:48;;;;;;;16.80;12.18;;;;;;;;;;5016810;28;20464;-73
2023/03/29 05:22:15;;;;;;;17.05;11.63;;;;;;;;;;5011729;28;20376;-73
2023/03/29 05:24:42;;;;;;;18.45;12.02;;;;;;;;;;5000958;28;20134;-73
2023/03/29 05:27:08;;;;;;;17.08;11.52;;;;;;;;;;5016825;28;20115;-73
2023/03/29 05:29:35;;;;;;;15.25;11.20;;;;;;;;;;5016495;28;20045;-73
2023/03/29 05:32:01;;;;;;;15.60;10.82;;;;;;;;;;5012787;28;20122;-73
2023/03/29 05:34:28;;;;;;;17.75;11.23;;;;;;;;;;5016415;28;20180;-73
2023/03/29 05:36:55;;;;;;;18.67;12.02;;;;;;;;;;5014533;28;20099;-73
2023/03/29 05:39:22;;;;;;;19.00;12.70;;;;;;;;;;5013799;28;20056;-72
2023/03/29 05:41:48;;;;;;;18.35;12.05;;;;;;;;;;5013538;28;20064;-73
2023/03/29 05:44:15;;;;;;;23.05;12.57;;;;;;;;;;5017365;28;20570;-73
2023/03/29 05:46:41;;;;;;;16.45;11.27;;;;;;;;;;5013422;28;20040;-73
2023/03/29 05:49:08;;;;;;;15.05;10.05;;;;;;;;;;5011088;28;20053;-73
2023/03/29 05:51:34;;;;;;;17.95;11.35;;;;;;;;;;5012126;28;20071;-74
2023/03/29 05:54:00;;;;;;;15.48;10.07;;;;;;;;;;4996761;28;20875;-74
2023/03/29 05:56:27;;;;;;;19.80;11.38;;;;;;;;;;5013208;28;20049;-73
2023/03/29 05:58:57;;;;;;;17.33;10.80;;;;;;;;;;5011826;28;20185;-73
2023/03/29 06:01:23;;;;;;;20.05;10.50;;;;;;;;;;5016119;28;20060;-73
2023/03/29 06:03:52;;;;;;;16.48;11.55;;;;;;;;;;5011487;28;20055;-73
2023/03/29 06:06:20;;;;;;;17.48;11.40;;;;;;;;;;5010933;28;20131;-74
2023/03/29 06:08:46;;;;;;;15.77;12.23;;;;;;;;;;5012089;28;20160;-73
2023/03/29 06:11:13;;;;;;;17.15;10.82;;;;;;;;;;5012512;28;20080;-73
2023/03/29 06:13:40;;;;;;;16.40;12.10;;;;;;;;;;5011949;28;20136;-73
2023/03/29 06:16:07;;;;;;;27.20;12.80;;;;;;;;;;5013671;28;20041;-73
2023/03/29 06:18:34;;;;;;;19.05;12.65;;;;;;;;;;5013303;28;20270;-73
2023/03/29 06:21:03;;;;;;;22.73;12.68;;;;;;;;;;5012903;28;20037;-73
2023/03/29 06:23:30;;;;;;;16.70;12.20;;;;;;;;;;4999115;28;20055;-73
2023/03/29 06:25:56;;;;;;;17.10;11.95;;;;;;;;;;5010265;28;20072;-73
2023/03/29 06:28:23;;;;;;;18.67;11.85;;;;;;;;;;4991575;28;20049;-74
2023/03/29 06:30:50;;;;;;;16.30;12.57;;;;;;;;;;5012556;28;21453;-73
2023/03/29 06:33:16;;;;;;;21.52;12.85;;;;;;;;;;5015957;28;20140;-73
2023/03/29 06:35:43;;;;;;;19.73;13.45;;;;;;;;;;5014237;28;20038;-73
2023/03/29 06:38:10;;;;;;;19.75;13.20;;;;;;;;;;5010527;28;20053;-73
2023/03/29 06:40:38;;;;;;;23.35;12.77;;;;;;;;;;5010597;28;20048;-73
2023/03/29 06:43:05;;;;;;;18.65;12.38;;;;;;;;;;5013279;28;20045;-73
2023/03/29 06:45:32;;;;;;;20.30;12.70;;;;;;;;;;5009532;28;20078;-73
2023/03/29 06:47:59;;;;;;;20.33;11.93;;;;;;;;;;4993215;28;20041;-73
2023/03/29 06:50:25;;;;;;;16.40;11.80;;;;;;;;;;5009183;28;20490;-73
2023/03/29 06:52:51;;;;;;;17.77;12.40;;;;;;;;;;5010322;28;20053;-73
2023/03/29 06:55:17;;;;;;;17.35;11.70;;;;;;;;;;5011763;28;20061;-73
2023/03/29 06:57:44;;;;;;;20.98;13.13;;;;;;;;;;5012092;28;20492;-73
2023/03/29 07:00:17;;;;;;;18.02;12.90;;;;;;;;;;5011850;28;20071;-72
2023/03/29 07:02:43;;;;;;;19.38;11.45;;;;;;;;;;5004519;28;20068;-73
2023/03/29 07:05:10;;;;;;;15.27;11.50;;;;;;;;;;4996986;28;20049;-72
2023/03/29 07:08:30;;;;;;;22.48;11.43;;;;;;;;;;5013394;28;20401;-73
2023/03/29 07:10:32;;;;;;;22.85;13.52;;;;;;;;;;5004812;28;20922;-73
2023/03/29 07:12:59;;;;;;;18.92;12.82;;;;;;;;;;5013224;28;20513;-73
2023/03/29 07:15:26;;;;;;;19.00;12.63;;;;;;;;;;5017335;28;20088;-73
2023/03/29 07:17:52;;;;;;;19.45;12.27;;;;;;;;;;5017142;28;20049;-72
2023/03/29 07:20:20;;;;;;;14.65;10.50;;;;;;;;;;5018318;28;20190;-73
2023/03/29 07:22:47;;;;;;;22.58;13.07;;;;;;;;;;5019127;28;20051;-72
2023/03/29 07:25:14;;;;;;;13.25;10.15;;;;;;;;;;5017987;28;20044;-73
2023/03/29 07:27:41;;;;;;;15.90;10.45;;;;;;;;;;5017650;28;20041;-72
2023/03/29 07:30:09;;;;;;;15.82;12.20;;;;;;;;;;5012734;28;20064;-72
2023/03/29 07:32:39;;;;;;;21.50;12.60;;;;;;;;;;5017939;28;20049;-72
2023/03/29 07:35:06;;;;;;;19.70;13.00;;;;;;;;;;5018875;28;20054;-73
2023/03/29 07:37:33;;;;;;;22.33;12.65;;;;;;;;;;5017214;28;20052;-73
2023/03/29 07:40:00;;;;;;;26.92;12.65;;;;;;;;;;5018616;28;20653;-73
2023/03/29 07:42:27;;;;;;;16.63;11.80;;;;;;;;;;5017328;28;20552;-73
2023/03/29 07:44:54;;;;;;;23.90;13.00;;;;;;;;;;5014282;28;20053;-73
2023/03/29 07:47:20;;;;;;;18.88;12.93;;;;;;;;;;5017531;28;20051;-73
2023/03/29 07:49:46;;;;;;;19.52;12.07;;;;;;;;;;5016063;28;20048;-73
2023/03/29 07:52:12;;;;;;;16.80;11.60;;;;;;;;;;5017232;28;20173;-73
2023/03/29 07:54:39;;;;;;;18.73;11.55;;;;;;;;;;5017552;28;20052;-72
2023/03/29 07:57:05;;;;;;;15.18;10.90;;;;;;;;;;5017232;28;20777;-73
2023/03/29 07:59:31;;;;;;;13.68;10.80;;;;;;;;;;5017621;28;20074;-73
2023/03/29 08:01:58;;;;;;;18.42;12.07;;;;;;;;;;5003124;28;20087;-73
2023/03/29 08:04:24;;;;;;;14.57;9.30;;;;;;;;;;5017753;28;20111;-73
2023/03/29 08:06:50;;;;;;;15.00;9.02;;;;;;;;;;5017529;28;20071;-73
2023/03/29 08:09:16;;;;;;;16.30;10.63;;;;;;;;;;5018566;28;20067;-73
2023/03/29 08:11:42;;;;;;;12.63;8.68;;;;;;;;;;5014742;28;20058;-73
2023/03/29 08:14:08;;;;;;;16.67;12.10;;;;;;;;;;5008866;28;20055;-73
2023/03/29 08:16:34;;;;;;;15.40;9.07;;;;;;;;;;5015792;28;20073;-73
2023/03/29 08:19:00;;;;;;;15.38;11.02;;;;;;;;;;5001075;28;20038;-73
2023/03/29 08:21:26;;;;;;;14.90;11.60;;;;;;;;;;5017594;28;20404;-73
2023/03/29 08:23:53;;;;;;;17.92;11.18;;;;;;;;;;4999328;28;20072;-73
2023/03/29 08:26:19;;;;;;;12.43;9.32;;;;;;;;;;5010426;28;20045;-73
2023/03/29 08:28:45;;;;;;;15.07;10.68;;;;;;;;;;4990483;28;20127;-73
2023/03/29 08:31:11;;;;;;;15.80;10.57;;;;;;;;;;5012238;28;20159;-73
2023/03/29 08:33:37;;;;;;;16.88;8.77;;;;;;;;;;4993501;28;20053;-72
2023/03/29 08:36:04;;;;;;;11.65;9.13;;;;;;;;;;4994857;28;20143;-73
2023/03/29 08:38:30;;;;;;;14.63;10.60;;;;;;;;;;5002788;28;20053;-73
2023/03/29 08:40:56;;;;;;;13.82;10.23;;;;;;;;;;5014574;28;20152;-72
2023/03/29 08:43:45;;;;;;;14.38;9.60;;;;;;;;;;5012987;28;20045;-73
2023/03/29 08:46:35;;;;;;;14.95;9.68;;;;;;;;;;5013206;28;20131;-73
2023/03/29 08:49:03;;;;;;;13.30;9.60;;;;;;;;;;5020407;28;20475;-72
2023/03/29 08:51:32;;;;;;;14.38;9.82;;;;;;;;;;5015650;28;20405;-73
2023/03/29 08:54:01;;;;;;;12.18;8.63;;;;;;;;;;5015624;28;20131;-73
2023/03/29 08:56:28;;;;;;;14.10;7.35;;;;;;;;;;5016167;28;20048;-73
2023/03/29 08:58:56;;;;;;;12.77;8.77;;;;;;;;;;5017111;28;20037;-72
2023/03/29 09:01:23;;;;;;;12.90;9.48;;;;;;;;;;5014913;28;20048;-73
2023/03/29 09:03:49;;;;;;;11.48;9.52;;;;;;;;;;5002769;28;20095;-73
2023/03/29 09:06:16;;;;;;;13.13;8.32;;;;;;;;;;5014297;28;20619;-73
2023/03/29 09:08:45;;;;;;;12.35;9.75;;;;;;;;;;5012524;28;20156;-73
2023/03/29 09:11:25;;;;;;;12.48;8.82;;;;;;;;;;5013250;28;20067;-72
2023/03/29 09:14:10;;;;;;;14.90;9.10;;;;;;;;;;5013065;28;20440;-73
2023/03/29 09:16:36;;;;;;;16.30;9.18;;;;;;;;;;5016070;28;20057;-73
2023/03/29 09:19:10;;;;;;;14.57;8.65;;;;;;;;;;5014777;28;20041;-73
2023/03/29 09:21:40;;;;;;;15.05;8.90;;;;;;;;;;5015608;28;20049;-72
2023/03/29 09:24:12;;;;;;;10.13;7.40;;;;;;;;;;5010672;28;20045;-72
2023/03/29 09:26:46;;;;;;;11.45;8.60;;;;;;;;;;5011580;28;20048;-72
2023/03/29 09:29:12;;;;;;;;;;;;;;;;;;5014281;28;20045;-72
2023/03/29 09:31:42;;;;;;;14.05;9.40;;;;;;;;;;5012255;28;19989;-72
2023/03/29 09:34:08;;;;;;;14.35;8.40;;;;;;;;;;5016120;28;21697;-72
2023/03/29 09:36:44;;;;;;;18.85;11.05;;;;;;;;;;5011964;28;20049;-72
2023/03/29 09:39:13;;;;;;;21.20;9.70;;;;;;;;;;5012295;28;20556;-72
2023/03/29 09:41:42;;;;;;;18.17;10.65;;;;;;;;;;5011790;28;20045;-72
2023/03/29 09:44:12;;;;;;;20.15;11.25;;;;;;;;;;5011105;28;20378;-72
2023/03/29 09:46:43;;;;;;;16.08;10.52;;;;;;;;;;5009943;28;20094;-72
2023/03/29 09:49:13;;;;;;;15.50;9.85;;;;;;;;;;5011572;28;20139;-73
2023/03/29 09:51:40;;;;;;;18.27;9.75;;;;;;;;;;5011948;28;20053;-73
2023/03/29 09:54:06;;;;;;;17.77;11.27;;;;;;;;;;5013645;28;20080;-72
2023/03/29 09:56:32;;;;;;;18.02;10.90;;;;;;;;;;5013765;28;20795;-72
2023/03/29 09:58:58;;;;;;;19.52;9.73;;;;;;;;;;5010842;28;20207;-73
2023/03/29 10:01:34;;;;;;;18.50;10.43;;;;;;;;;;5013427;28;20072;-73
2023/03/29 10:04:00;;;;;;;15.98;10.10;;;;;;;;;;5011174;28;20041;-73
2023/03/29 10:06:26;;;;;;;19.27;10.60;;;;;;;;;;5014088;28;20620;-73
2023/03/29 10:08:58;;;;;;;17.40;9.75;;;;;;;;;;5011523;28;20048;-73
2023/03/29 10:11:37;;;;;;;19.42;11.40;;;;;;;;;;5009943;28;20395;-73
2023/03/29 10:14:05;;;;;;;17.20;12.10;;;;;;;;;;5010892;28;20059;-73
2023/03/29 10:16:39;;;;;;;22.83;11.00;;;;;;;;;;5013326;28;20045;-73
2023/03/29 10:19:23;;;;;;;20.67;11.30;;;;;;;;;;4993024;28;20052;-73
2023/03/29 10:21:51;;;;;;;14.98;9.45;;;;;;;;;;4997459;28;20143;-73
2023/03/29 10:24:21;;;;;;;21.00;10.50;;;;;;;;;;5012120;28;20044;-73
2023/03/29 10:26:48;;;;;;;19.33;10.30;;;;;;;;;;5012405;28;20051;-73
2023/03/29 10:29:15;;;;;;;17.30;10.55;;;;;;;;;;4996344;28;20473;-73
2023/03/29 10:31:42;;;;;;;18.67;9.88;;;;;;;;;;5012352;28;20048;-72
2023/03/29 10:34:10;;;;;;;16.38;9.93;;;;;;;;;;4992388;28;20069;-73
2023/03/29 10:36:40;;;;;;;19.95;11.32;;;;;;;;;;5011046;28;20056;-73
2023/03/29 10:39:07;;;;;;;20.00;9.98;;;;;;;;;;5008638;28;20517;-73
2023/03/29 10:41:35;;;;;;;15.30;10.00;;;;;;;;;;5011357;28;20045;-73
2023/03/29 10:44:01;;;;;;;17.98;11.23;;;;;;;;;;5009097;28;20043;-73
2023/03/29 10:46:29;;;;;;;18.95;10.85;;;;;;;;;;5009510;28;20041;-73
2023/03/29 10:48:58;;;;;;;18.77;10.63;;;;;;;;;;5008913;28;20137;-73
2023/03/29 10:51:26;;;;;;;18.38;9.65;;;;;;;;;;5008557;28;20595;-77
2023/03/29 10:53:52;;;;;;;17.73;10.50;;;;;;;;;;4996552;28;20083;-78
2023/03/29 10:56:18;;;;;;;20.65;11.75;;;;;;;;;;5011234;28;20445;-78
2023/03/29 10:59:04;;;;;;;17.85;11.50;;;;;;;;;;5008111;28;20797;-78
2023/03/29 11:01:49;;;;;;;20.52;9.60;;;;;;;;;;5009409;28;20077;-77
2023/03/29 11:04:34;;;;;;;21.73;11.95;;;;;;;;;;5008957;28;20753;-78
2023/03/29 11:07:03;;;;;;;19.80;11.88;;;;;;;;;;4993486;28;20052;-77
2023/03/29 11:09:41;;;;;;;21.52;12.20;;;;;;;;;;5013923;28;20045;-77
2023/03/29 11:12:31;;;;;;;19.85;11.75;;;;;;;;;;5011318;28;20055;-78
2023/03/29 11:15:08;;;;;;;19.13;9.32;;;;;;;;;;5000118;28;20128;-77
2023/03/29 11:17:49;;;;;;;17.35;10.68;;;;;;;;;;5015331;28;21458;-78
2023/03/29 11:20:16;;;;;;;20.60;11.50;;;;;;;;;;5013943;28;20207;-78
2023/03/29 11:22:52;;;;;;;17.70;10.18;;;;;;;;;;5010667;28;20068;-77
2023/03/29 11:25:41;;;;;;;14.63;9.73;;;;;;;;;;5012976;28;20049;-78
2023/03/29 11:28:10;;;;;;;24.55;11.73;;;;;;;;;;5013699;28;20131;-78
2023/03/29 11:30:43;;;;;;;16.02;9.90;;;;;;;;;;5017458;28;20040;-77
2023/03/29 11:33:19;;;;;;;17.88;10.45;;;;;;;;;;5021945;28;20052;-77
2023/03/29 11:35:46;;;;;;;16.67;10.32;;;;;;;;;;4999375;28;20135;-78
2023/03/29 11:38:35;;;;;;;18.38;10.15;;;;;;;;;;5015978;28;20049;-77
2023/03/29 11:41:01;;;;;;;15.98;11.20;;;;;;;;;;5017740;28;20529;-78
2023/03/29 11:43:34;;;;;;;18.15;10.60;;;;;;;;;;5001758;28;20593;-79
2023/03/29 11:46:19;;;;;;;19.97;11.80;;;;;;;;;;5019113;28;20037;-79
2023/03/29 11:49:05;;;;;;;17.42;11.75;;;;;;;;;;5013670;28;21087;-78
2023/03/29 11:51:33;;;;;;;15.02;11.25;;;;;;;;;;5016936;28;20056;-79
2023/03/29 11:54:05;;;;;;;19.75;10.85;;;;;;;;;;5016701;28;20045;-79
2023/03/29 11:56:37;;;;;;;17.10;10.13;;;;;;;;;;4998843;28;20508;-78
2023/03/29 11:59:15;;;;;;;13.95;9.50;;;;;;;;;;5017268;28;20083;-78
2023/03/29 12:01:53;;;;;;;18.17;11.23;;;;;;;;;;5016503;28;20551;-79
2023/03/29 12:04:24;;;;;;;14.82;9.50;;;;;;;;;;5016355;28;20055;-78
2023/03/29 12:06:54;;;;;;;16.08;9.70;;;;;;;;;;5013013;28;20544;-78
2023/03/29 12:09:27;;;;;;;16.23;10.80;;;;;;;;;;5014244;28;20042;-78
2023/03/29 12:12:01;;;;;;;16.33;10.35;;;;;;;;;;5014438;28;20103;-79
2023/03/29 12:14:31;;;;;;;16.15;10.55;;;;;;;;;;5017850;28;20529;-77
2023/03/29 12:17:03;;;;;;;17.98;11.40;;;;;;;;;;5015780;28;20077;-77
2023/03/29 12:19:44;;;;;;;14.70;10.40;;;;;;;;;;5014479;28;20135;-77
2023/03/29 12:22:10;;;;;;;18.15;12.30;;;;;;;;;;5018194;28;20143;-77
2023/03/29 12:24:40;;;;;;;19.50;12.10;;;;;;;;;;5016684;28;20782;-77
2023/03/29 12:27:27;;;;;;;17.80;11.88;;;;;;;;;;5013381;28;20053;-78
2023/03/29 12:29:53;;;;;;;19.63;11.57;;;;;;;;;;5018830;28;20049;-76
2023/03/29 12:32:26;;;;;;;14.30;10.82;;;;;;;;;;5017916;28;20148;-78
2023/03/29 12:35:01;;;;;;;13.82;10.85;;;;;;;;;;5021129;28;20049;-78
2023/03/29 12:37:30;;;;;;;28.70;12.52;;;;;;;;;;5021308;28;20135;-78
2023/03/29 12:40:23;;;;;;;20.48;12.85;;;;;;;;;;5018547;28;20045;-78
2023/03/29 12:42:53;;;;;;;15.02;9.77;;;;;;;;;;5013764;28;20096;-77
2023/03/29 12:45:21;;;;;;;17.98;10.75;;;;;;;;;;5017305;28;20037;-77
2023/03/29 12:47:48;;;;;;;14.63;9.95;;;;;;;;;;5014390;28;20530;-78
2023/03/29 12:50:34;;;;;;;19.65;10.35;;;;;;;;;;5015537;28;20049;-78
2023/03/29 12:53:14;;;;;;;14.07;10.30;;;;;;;;;;5001290;28;20049;-77
2023/03/29 12:55:43;;;;;;;18.23;11.02;;;;;;;;;;5015632;28;20040;-78
2023/03/29 12:58:22;;;;;;;16.83;10.85;;;;;;;;;;5016643;28;20045;-77
2023/03/29 13:00:55;;;;;;;16.48;11.38;;;;;;;;;;5017357;28;20760;-77
2023/03/29 13:03:28;;;;;;;16.08;10.75;;;;;;;;;;5005141;28;20142;-78
2023/03/29 13:06:02;;;;;;;14.75;10.70;;;;;;;;;;5005445;28;20038;-79
2023/03/29 13:08:33;;;;;;;14.10;9.98;;;;;;;;;;5015391;28;20049;-77
2023/03/29 13:11:00;;;;;;;15.07;9.45;;;;;;;;;;5018943;28;20127;-78
2023/03/29 13:13:29;;;;;;;12.65;9.90;;;;;;;;;;5015987;28;20146;-77
2023/03/29 13:15:55;;;;;;;14.02;9.73;;;;;;;;;;5016740;28;20423;-78
2023/03/29 13:18:27;;;;;;;12.85;9.73;;;;;;;;;;5017076;28;20069;-78
2023/03/29 13:21:02;;;;;;;14.32;9.35;;;;;;;;;;5013983;28;20055;-78
2023/03/29 13:23:33;;;;;;;13.80;9.25;;;;;;;;;;5019465;28;20132;-77
2023/03/29 13:26:07;;;;;;;15.40;9.38;;;;;;;;;;5016367;28;20045;-77
2023/03/29 13:28:51;;;;;;;11.30;7.87;;;;;;;;;;5013291;28;20432;-76
2023/03/29 13:31:36;;;;;;;10.43;7.72;;;;;;;;;;4995529;28;20087;-76
2023/03/29 13:34:20;;;;;;;11.57;8.38;;;;;;;;;;5020753;28;20329;-77
2023/03/29 13:36:46;;;;;;;;;;;;;;;;;;5017820;28;20041;-77
2023/03/29 13:39:18;;;;;;;10.75;7.57;;;;;;;;;;5005238;28;19920;-77
2023/03/29 13:41:47;;;;;;;11.55;7.85;;;;;;;;;;5019626;28;20049;-77
2023/03/29 13:44:23;;;;;;;13.32;7.80;;;;;;;;;;5015605;28;20700;-78
2023/03/29 13:47:01;;;;;;;10.70;7.90;;;;;;;;;;5014277;28;20110;-78
2023/03/29 13:49:29;;;;;;;9.35;7.15;;;;;;;;;;5016654;28;20397;-80
2023/03/29 13:52:05;;;;;;;9.57;7.63;;;;;;;;;;5016960;28;20656;-77
2023/03/29 13:54:34;;;;;;;13.38;7.10;;;;;;;;;;5019795;28;20068;-77
2023/03/29 13:57:24;;;;;;;9.93;6.80;;;;;;;;;;5021343;28;20050;-77
2023/03/29 13:59:50;;;;;;;9.23;7.97;;;;;;;;;;5012461;28;20049;-77
2023/03/29 14:02:20;;;;;;;12.15;8.00;;;;;;;;;;5018567;28;20722;-77
2023/03/29 14:04:49;;;;;;;10.30;8.32;;;;;;;;;;5020935;28;20755;-77
2023/03/29 14:07:18;;;;;;;16.38;8.73;;;;;;;;;;5000930;28;20047;-77
2023/03/29 14:09:45;;;;;;;11.57;8.25;;;;;;;;;;5018046;28;20545;-76
2023/03/29 14:12:13;;;;;;;10.68;8.30;;;;;;;;;;5019626;28;20056;-78
2023/03/29 14:14:41;;;;;;;9.00;7.70;;;;;;;;;;5016124;28;20060;-78
2023/03/29 14:17:07;;;;;;;11.27;9.10;;;;;;;;;;5016770;28;20041;-77
2023/03/29 14:19:37;;;;;;;12.05;8.63;;;;;;;;;;4999195;28;20055;-78
2023/03/29 14:22:07;;;;;;;15.15;8.93;;;;;;;;;;5000322;28;20056;-77
2023/03/29 14:24:36;;;;;;;10.07;8.65;;;;;;;;;;5017468;28;20057;-77
2023/03/29 14:27:04;;;;;;;11.43;8.23;;;;;;;;;;5002107;28;20103;-76
2023/03/29 14:29:34;;;;;;;10.25;7.57;;;;;;;;;;5004590;28;20356;-77
2023/03/29 14:32:10;;;;;;;11.15;7.90;;;;;;;;;;5017586;28;20052;-77
2023/03/29 14:34:37;;;;;;;12.25;8.25;;;;;;;;;;5020980;28;20471;-77
2023/03/29 14:37:03;;;;;;;10.43;7.68;;;;;;;;;;5015711;28;20045;-77
2023/03/29 14:39:31;;;;;;;9.23;7.50;;;;;;;;;;5018151;28;20051;-77
2023/03/29 14:41:57;;;;;;;11.50;7.50;;;;;;;;;;5016324;28;20052;-76
2023/03/29 14:44:29;;;;;;;13.07;7.50;;;;;;;;;;5018713;28;20139;-77